sensor_id;sensor_type;location;lat;lon;timestamp;pressure;altitude;pressure_sealevel;temperature;humidity
54329;BME280;40710;51.120;13.136;2022-09-06T00:00:21;99813.97;;;22.10;60.71
54329;BME280;40710;51.120;13.136;2022-09-06T00:02:45;99809.22;;;22.04;60.86
54329;BME280;40710;51.120;13.136;2022-09-06T00:05:11;99810.59;;;22.08;60.50
54329;BME280;40710;51.120;13.136;2022-09-06T00:07:35;99814.84;;;21.91;61.10
54329;BME280;40710;51.120;13.136;2022-09-06T00:09:59;99810.63;;;21.98;60.54
54329;BME280;40710;51.120;13.136;2022-09-06T00:12:25;99813.31;;;21.88;60.66
54329;BME280;40710;51.120;13.136;2022-09-06T00:14:49;99813.06;;;21.82;60.50
54329;BME280;40710;51.120;13.136;2022-09-06T00:17:14;99818.69;;;21.79;60.64
54329;BME280;40710;51.120;13.136;2022-09-06T00:19:38;99825.59;;;21.71;60.89
54329;BME280;40710;51.120;13.136;2022-09-06T00:22:02;99822.50;;;21.57;61.37
54329;BME280;40710;51.120;13.136;2022-09-06T00:24:27;99814.03;;;21.61;60.94
54329;BME280;40710;51.120;13.136;2022-09-06T00:26:51;99807.88;;;21.70;60.57
54329;BME280;40710;51.120;13.136;2022-09-06T00:29:16;99805.75;;;21.74;60.53
54329;BME280;40710;51.120;13.136;2022-09-06T00:31:40;99805.59;;;21.66;60.70
54329;BME280;40710;51.120;13.136;2022-09-06T00:34:04;99805.78;;;21.55;61.25
54329;BME280;40710;51.120;13.136;2022-09-06T00:36:29;99796.88;;;21.44;61.42
54329;BME280;40710;51.120;13.136;2022-09-06T00:38:54;99799.81;;;21.41;61.41
54329;BME280;40710;51.120;13.136;2022-09-06T00:41:18;99801.34;;;21.44;61.24
54329;BME280;40710;51.120;13.136;2022-09-06T00:43:43;99802.50;;;21.51;61.08
54329;BME280;40710;51.120;13.136;2022-09-06T00:46:11;99811.69;;;21.58;61.40
54329;BME280;40710;51.120;13.136;2022-09-06T00:48:38;99811.78;;;21.66;60.80
54329;BME280;40710;51.120;13.136;2022-09-06T00:51:07;99805.31;;;21.59;61.01
54329;BME280;40710;51.120;13.136;2022-09-06T00:53:34;99805.75;;;21.64;61.12
54329;BME280;40710;51.120;13.136;2022-09-06T00:55:59;99808.69;;;21.61;61.07
54329;BME280;40710;51.120;13.136;2022-09-06T00:58:24;99800.13;;;21.48;61.19
54329;BME280;40710;51.120;13.136;2022-09-06T01:00:49;99806.28;;;21.39;61.56
54329;BME280;40710;51.120;13.136;2022-09-06T01:03:14;99804.44;;;21.29;61.66
54329;BME280;40710;51.120;13.136;2022-09-06T01:11:41;99795.88;;;21.36;61.74
54329;BME280;40710;51.120;13.136;2022-09-06T01:14:32;99789.25;;;21.40;61.66
54329;BME280;40710;51.120;13.136;2022-09-06T01:17:23;99796.56;;;21.38;61.26
54329;BME280;40710;51.120;13.136;2022-09-06T01:20:21;99793.09;;;21.57;61.40
54329;BME280;40710;51.120;13.136;2022-09-06T01:23:14;99799.53;;;21.44;61.14
54329;BME280;40710;51.120;13.136;2022-09-06T01:28:34;99789.88;;;21.53;60.78
54329;BME280;40710;51.120;13.136;2022-09-06T01:33:58;99786.31;;;21.43;60.80
54329;BME280;40710;51.120;13.136;2022-09-06T01:36:26;99786.75;;;21.48;60.87
54329;BME280;40710;51.120;13.136;2022-09-06T01:38:52;99786.56;;;21.30;61.08
54329;BME280;40710;51.120;13.136;2022-09-06T01:41:16;99792.78;;;21.30;61.58
54329;BME280;40710;51.120;13.136;2022-09-06T01:43:44;99796.88;;;21.25;61.88
54329;BME280;40710;51.120;13.136;2022-09-06T01:46:25;99804.28;;;21.21;61.87
54329;BME280;40710;51.120;13.136;2022-09-06T01:49:22;99792.75;;;21.40;61.14
54329;BME280;40710;51.120;13.136;2022-09-06T02:02:48;99802.47;;;21.22;61.65
54329;BME280;40710;51.120;13.136;2022-09-06T02:08:45;99803.72;;;21.18;61.89
54329;BME280;40710;51.120;13.136;2022-09-06T02:10:55;99810.22;;;21.15;61.67
54329;BME280;40710;51.120;13.136;2022-09-06T02:13:22;99802.47;;;21.12;61.39
54329;BME280;40710;51.120;13.136;2022-09-06T02:15:54;99802.16;;;21.05;61.30
54329;BME280;40710;51.120;13.136;2022-09-06T02:18:23;99802.06;;;21.17;61.12
54329;BME280;40710;51.120;13.136;2022-09-06T02:20:54;99795.41;;;21.01;61.28
54329;BME280;40710;51.120;13.136;2022-09-06T02:23:22;99775.19;;;21.18;60.68
54329;BME280;40710;51.120;13.136;2022-09-06T02:26:08;99783.34;;;21.17;61.01
54329;BME280;40710;51.120;13.136;2022-09-06T02:28:34;99782.78;;;21.23;61.17
54329;BME280;40710;51.120;13.136;2022-09-06T02:31:02;99776.28;;;21.15;61.01
54329;BME280;40710;51.120;13.136;2022-09-06T02:33:30;99772.34;;;21.10;61.33
54329;BME280;40710;51.120;13.136;2022-09-06T02:35:55;99772.94;;;21.23;61.08
54329;BME280;40710;51.120;13.136;2022-09-06T02:38:25;99771.81;;;21.26;60.78
54329;BME280;40710;51.120;13.136;2022-09-06T02:40:52;99774.63;;;21.24;60.92
54329;BME280;40710;51.120;13.136;2022-09-06T02:43:17;99771.38;;;21.21;61.27
54329;BME280;40710;51.120;13.136;2022-09-06T02:45:41;99765.63;;;21.25;61.10
54329;BME280;40710;51.120;13.136;2022-09-06T02:48:06;99752.41;;;21.24;60.56
54329;BME280;40710;51.120;13.136;2022-09-06T02:50:30;99758.28;;;21.18;60.84
54329;BME280;40710;51.120;13.136;2022-09-06T02:53:06;99755.19;;;21.22;60.94
54329;BME280;40710;51.120;13.136;2022-09-06T02:55:31;99770.63;;;20.89;61.78
54329;BME280;40710;51.120;13.136;2022-09-06T02:57:55;99774.31;;;20.88;61.93
54329;BME280;40710;51.120;13.136;2022-09-06T03:00:20;99775.53;;;20.74;62.51
54329;BME280;40710;51.120;13.136;2022-09-06T03:02:44;99773.69;;;20.65;62.58
54329;BME280;40710;51.120;13.136;2022-09-06T03:05:09;99762.44;;;20.71;62.19
54329;BME280;40710;51.120;13.136;2022-09-06T03:07:34;99766.25;;;20.69;62.09
54329;BME280;40710;51.120;13.136;2022-09-06T03:09:58;99768.22;;;20.76;62.10
54329;BME280;40710;51.120;13.136;2022-09-06T03:12:23;99769.81;;;20.58;62.51
54329;BME280;40710;51.120;13.136;2022-09-06T03:14:47;99769.69;;;20.50;62.32
54329;BME280;40710;51.120;13.136;2022-09-06T03:17:11;99768.63;;;20.62;61.95
54329;BME280;40710;51.120;13.136;2022-09-06T03:19:36;99762.94;;;20.55;62.33
54329;BME280;40710;51.120;13.136;2022-09-06T03:22:00;99767.72;;;20.52;62.71
54329;BME280;40710;51.120;13.136;2022-09-06T03:24:25;99768.28;;;20.55;62.88
54329;BME280;40710;51.120;13.136;2022-09-06T03:26:49;99773.03;;;20.52;62.91
54329;BME280;40710;51.120;13.136;2022-09-06T03:29:15;99772.50;;;20.58;62.44
54329;BME280;40710;51.120;13.136;2022-09-06T03:31:39;99768.28;;;20.55;62.82
54329;BME280;40710;51.120;13.136;2022-09-06T03:34:03;99767.44;;;20.55;62.73
54329;BME280;40710;51.120;13.136;2022-09-06T03:36:28;99766.88;;;20.61;61.88
54329;BME280;40710;51.120;13.136;2022-09-06T03:38:52;99757.81;;;20.64;61.48
54329;BME280;40710;51.120;13.136;2022-09-06T03:41:17;99744.69;;;20.61;61.51
54329;BME280;40710;51.120;13.136;2022-09-06T03:43:41;99755.16;;;20.73;61.71
54329;BME280;40710;51.120;13.136;2022-09-06T03:46:05;99756.53;;;20.68;61.90
54329;BME280;40710;51.120;13.136;2022-09-06T03:48:30;99753.97;;;20.56;61.79
54329;BME280;40710;51.120;13.136;2022-09-06T03:50:56;99748.88;;;20.53;61.37
54329;BME280;40710;51.120;13.136;2022-09-06T03:53:23;99739.81;;;20.75;61.02
54329;BME280;40710;51.120;13.136;2022-09-06T03:55:49;99741.38;;;20.78;61.25
54329;BME280;40710;51.120;13.136;2022-09-06T03:58:15;99752.34;;;20.65;62.19
54329;BME280;40710;51.120;13.136;2022-09-06T04:00:40;99755.72;;;20.77;61.62
54329;BME280;40710;51.120;13.136;2022-09-06T04:03:04;99749.31;;;20.58;62.19
54329;BME280;40710;51.120;13.136;2022-09-06T04:05:29;99750.56;;;20.54;62.11
54329;BME280;40710;51.120;13.136;2022-09-06T04:07:53;99745.34;;;20.53;61.66
54329;BME280;40710;51.120;13.136;2022-09-06T04:10:18;99741.19;;;20.60;61.09
54329;BME280;40710;51.120;13.136;2022-09-06T04:12:43;99735.19;;;20.68;61.06
54329;BME280;40710;51.120;13.136;2022-09-06T04:15:08;99741.91;;;20.72;61.17
54329;BME280;40710;51.120;13.136;2022-09-06T04:17:32;99733.50;;;20.76;60.97
54329;BME280;40710;51.120;13.136;2022-09-06T04:19:57;99729.78;;;20.58;61.92
54329;BME280;40710;51.120;13.136;2022-09-06T04:22:21;99723.31;;;20.61;61.03
54329;BME280;40710;51.120;13.136;2022-09-06T04:24:46;99709.88;;;20.72;60.87
54329;BME280;40710;51.120;13.136;2022-09-06T04:27:10;99716.63;;;20.66;61.26
54329;BME280;40710;51.120;13.136;2022-09-06T04:29:34;99722.88;;;20.55;62.20
54329;BME280;40710;51.120;13.136;2022-09-06T04:31:59;99717.81;;;20.43;62.57
54329;BME280;40710;51.120;13.136;2022-09-06T04:34:23;99721.47;;;20.51;62.45
54329;BME280;40710;51.120;13.136;2022-09-06T04:36:47;99726.09;;;20.49;62.27
54329;BME280;40710;51.120;13.136;2022-09-06T04:39:12;99730.63;;;20.58;62.13
54329;BME280;40710;51.120;13.136;2022-09-06T04:41:36;99717.16;;;20.60;61.71
54329;BME280;40710;51.120;13.136;2022-09-06T04:44:01;99720.56;;;20.72;61.40
54329;BME280;40710;51.120;13.136;2022-09-06T04:46:27;99710.56;;;20.64;61.63
54329;BME280;40710;51.120;13.136;2022-09-06T04:48:53;99720.28;;;20.75;61.57
54329;BME280;40710;51.120;13.136;2022-09-06T04:51:18;99728.66;;;20.61;61.61
54329;BME280;40710;51.120;13.136;2022-09-06T04:53:43;99720.56;;;20.72;61.19
54329;BME280;40710;51.120;13.136;2022-09-06T04:56:13;99722.00;;;20.76;61.08
54329;BME280;40710;51.120;13.136;2022-09-06T04:58:39;99720.88;;;20.88;60.59
54329;BME280;40710;51.120;13.136;2022-09-06T05:01:03;99730.97;;;20.65;61.07
54329;BME280;40710;51.120;13.136;2022-09-06T05:03:27;99730.97;;;20.75;60.70
54329;BME280;40710;51.120;13.136;2022-09-06T05:06:02;99729.63;;;20.59;61.05
54329;BME280;40710;51.120;13.136;2022-09-06T05:08:27;99724.72;;;20.55;61.35
54329;BME280;40710;51.120;13.136;2022-09-06T05:10:51;99730.66;;;20.68;61.17
54329;BME280;40710;51.120;13.136;2022-09-06T05:13:15;99730.38;;;20.62;61.19
54329;BME280;40710;51.120;13.136;2022-09-06T05:15:40;99734.41;;;20.56;61.10
54329;BME280;40710;51.120;13.136;2022-09-06T05:18:04;99734.28;;;20.57;61.06
54329;BME280;40710;51.120;13.136;2022-09-06T05:20:30;99726.97;;;20.59;60.73
54329;BME280;40710;51.120;13.136;2022-09-06T05:22:54;99716.66;;;20.76;60.57
54329;BME280;40710;51.120;13.136;2022-09-06T05:25:19;99712.44;;;20.83;60.44
54329;BME280;40710;51.120;13.136;2022-09-06T05:27:43;99712.00;;;20.88;60.90
54329;BME280;40710;51.120;13.136;2022-09-06T05:30:08;99714.69;;;20.98;60.93
54329;BME280;40710;51.120;13.136;2022-09-06T05:32:33;99729.44;;;20.82;61.17
54329;BME280;40710;51.120;13.136;2022-09-06T05:34:57;99737.16;;;20.66;60.80
54329;BME280;40710;51.120;13.136;2022-09-06T05:37:22;99733.56;;;20.55;60.76
54329;BME280;40710;51.120;13.136;2022-09-06T05:39:46;99737.63;;;20.50;60.59
54329;BME280;40710;51.120;13.136;2022-09-06T05:42:11;99735.09;;;20.48;61.23
54329;BME280;40710;51.120;13.136;2022-09-06T05:44:36;99721.97;;;20.66;60.57
54329;BME280;40710;51.120;13.136;2022-09-06T05:47:00;99722.53;;;20.70;60.71
54329;BME280;40710;51.120;13.136;2022-09-06T05:49:25;99721.69;;;20.79;60.53
54329;BME280;40710;51.120;13.136;2022-09-06T05:51:50;99717.91;;;20.82;60.32
54329;BME280;40710;51.120;13.136;2022-09-06T05:54:15;99713.28;;;20.84;60.63
54329;BME280;40710;51.120;13.136;2022-09-06T05:56:39;99717.16;;;20.60;61.26
54329;BME280;40710;51.120;13.136;2022-09-06T05:59:03;99709.03;;;20.71;60.98
54329;BME280;40710;51.120;13.136;2022-09-06T06:01:29;99708.91;;;20.73;60.89
54329;BME280;40710;51.120;13.136;2022-09-06T06:04:02;99714.09;;;20.74;60.92
54329;BME280;40710;51.120;13.136;2022-09-06T06:06:31;99709.50;;;20.86;60.54
54329;BME280;40710;51.120;13.136;2022-09-06T06:08:56;99713.28;;;20.93;60.35
54329;BME280;40710;51.120;13.136;2022-09-06T06:11:22;99709.06;;;21.01;60.33
54329;BME280;40710;51.120;13.136;2022-09-06T06:13:46;99711.03;;;21.08;60.46
54329;BME280;40710;51.120;13.136;2022-09-06T06:16:13;99707.94;;;21.03;60.47
54329;BME280;40710;51.120;13.136;2022-09-06T06:18:38;99708.50;;;21.07;60.76
54329;BME280;40710;51.120;13.136;2022-09-06T06:21:07;99713.28;;;21.13;60.48
54329;BME280;40710;51.120;13.136;2022-09-06T06:23:32;99706.81;;;21.15;60.89
54329;BME280;40710;51.120;13.136;2022-09-06T06:25:56;99719.19;;;21.26;60.85
54329;BME280;40710;51.120;13.136;2022-09-06T06:28:20;99707.19;;;21.60;59.96
54329;BME280;40710;51.120;13.136;2022-09-06T06:30:45;99712.41;;;21.61;59.96
54329;BME280;40710;51.120;13.136;2022-09-06T06:33:09;99706.19;;;21.80;59.51
54329;BME280;40710;51.120;13.136;2022-09-06T06:35:33;99703.06;;;21.85;59.22
54329;BME280;40710;51.120;13.136;2022-09-06T06:37:58;99706.44;;;21.87;58.98
54329;BME280;40710;51.120;13.136;2022-09-06T06:40:22;99710.06;;;21.96;58.48
54329;BME280;40710;51.120;13.136;2022-09-06T06:42:47;99706.31;;;21.88;59.15
54329;BME280;40710;51.120;13.136;2022-09-06T06:45:11;99693.59;;;22.00;59.08
54329;BME280;40710;51.120;13.136;2022-09-06T06:47:35;99711.38;;;21.92;59.31
54329;BME280;40710;51.120;13.136;2022-09-06T06:50:00;99703.81;;;22.15;58.61
54329;BME280;40710;51.120;13.136;2022-09-06T06:52:24;99700.31;;;22.04;58.85
54329;BME280;40710;51.120;13.136;2022-09-06T06:54:49;99699.16;;;22.17;58.62
54329;BME280;40710;51.120;13.136;2022-09-06T06:57:13;99689.66;;;22.32;58.16
54329;BME280;40710;51.120;13.136;2022-09-06T06:59:37;99689.16;;;22.46;57.73
54329;BME280;40710;51.120;13.136;2022-09-06T07:02:03;99693.28;;;22.41;58.38
54329;BME280;40710;51.120;13.136;2022-09-06T07:04:27;99687.84;;;22.51;58.19
54329;BME280;40710;51.120;13.136;2022-09-06T07:06:53;99683.13;;;22.62;57.88
54329;BME280;40710;51.120;13.136;2022-09-06T07:09:19;99682.16;;;22.63;57.80
54329;BME280;40710;51.120;13.136;2022-09-06T07:11:44;99681.38;;;22.71;57.63
54329;BME280;40710;51.120;13.136;2022-09-06T07:14:09;99676.56;;;22.93;57.23
54329;BME280;40710;51.120;13.136;2022-09-06T07:16:33;99676.25;;;22.96;56.90
54329;BME280;40710;51.120;13.136;2022-09-06T07:18:58;99678.78;;;22.97;57.24
54329;BME280;40710;51.120;13.136;2022-09-06T07:21:24;99692.31;;;23.06;57.53
54329;BME280;40710;51.120;13.136;2022-09-06T07:23:52;99694.03;;;22.97;57.68
54329;BME280;40710;51.120;13.136;2022-09-06T07:26:21;99695.91;;;23.14;57.25
54329;BME280;40710;51.120;13.136;2022-09-06T07:28:46;99691.38;;;23.15;56.74
54329;BME280;40710;51.120;13.136;2022-09-06T07:31:11;99689.34;;;23.35;56.39
54329;BME280;40710;51.120;13.136;2022-09-06T07:33:36;99692.91;;;23.44;56.20
54329;BME280;40710;51.120;13.136;2022-09-06T07:36:02;99698.50;;;23.50;56.34
54329;BME280;40710;51.120;13.136;2022-09-06T07:38:28;99701.81;;;23.44;56.21
54329;BME280;40710;51.120;13.136;2022-09-06T07:40:54;99703.09;;;23.58;56.08
54329;BME280;40710;51.120;13.136;2022-09-06T07:43:19;99701.63;;;23.64;56.26
54329;BME280;40710;51.120;13.136;2022-09-06T07:45:44;99697.94;;;23.65;56.14
54329;BME280;40710;51.120;13.136;2022-09-06T07:48:08;99691.22;;;23.87;54.90
54329;BME280;40710;51.120;13.136;2022-09-06T07:50:32;99688.75;;;23.93;54.69
54329;BME280;40710;51.120;13.136;2022-09-06T07:53:04;99692.47;;;24.01;54.81
54329;BME280;40710;51.120;13.136;2022-09-06T07:55:28;99678.47;;;24.23;53.88
54329;BME280;40710;51.120;13.136;2022-09-06T07:57:53;99690.97;;;24.49;53.34
54329;BME280;40710;51.120;13.136;2022-09-06T08:00:17;99694.16;;;24.44;53.60
54329;BME280;40710;51.120;13.136;2022-09-06T08:02:42;99690.34;;;24.55;53.37
54329;BME280;40710;51.120;13.136;2022-09-06T08:05:07;99682.97;;;24.57;52.94
54329;BME280;40710;51.120;13.136;2022-09-06T08:07:31;99682.66;;;24.77;53.01
54329;BME280;40710;51.120;13.136;2022-09-06T08:09:56;99683.22;;;24.97;52.77
54329;BME280;40710;51.120;13.136;2022-09-06T08:12:20;99677.19;;;25.19;52.44
54329;BME280;40710;51.120;13.136;2022-09-06T08:14:44;99669.78;;;25.46;51.73
54329;BME280;40710;51.120;13.136;2022-09-06T08:17:09;99674.63;;;25.51;51.65
54329;BME280;40710;51.120;13.136;2022-09-06T08:19:33;99672.59;;;25.69;51.48
54329;BME280;40710;51.120;13.136;2022-09-06T08:21:57;99670.72;;;25.78;51.30
54329;BME280;40710;51.120;13.136;2022-09-06T08:24:22;99668.00;;;25.86;50.43
54329;BME280;40710;51.120;13.136;2022-09-06T08:26:46;99661.75;;;26.02;50.41
54329;BME280;40710;51.120;13.136;2022-09-06T08:29:11;99669.19;;;26.00;50.65
54329;BME280;40710;51.120;13.136;2022-09-06T08:31:38;99658.69;;;26.05;50.96
54329;BME280;40710;51.120;13.136;2022-09-06T08:34:03;99662.88;;;26.16;50.74
54329;BME280;40710;51.120;13.136;2022-09-06T08:36:28;99657.00;;;26.12;50.29
54329;BME280;40710;51.120;13.136;2022-09-06T08:38:54;99665.19;;;26.19;50.26
54329;BME280;40710;51.120;13.136;2022-09-06T08:46:23;99655.06;;;26.29;49.82
54329;BME280;40710;51.120;13.136;2022-09-06T08:48:50;99654.25;;;26.83;48.82
54329;BME280;40710;51.120;13.136;2022-09-06T08:51:31;99646.03;;;27.23;48.61
54329;BME280;40710;51.120;13.136;2022-09-06T08:54:07;99643.53;;;27.36;47.50
54329;BME280;40710;51.120;13.136;2022-09-06T08:56:45;99634.66;;;27.95;46.67
54329;BME280;40710;51.120;13.136;2022-09-06T08:59:15;99626.69;;;28.23;44.88
54329;BME280;40710;51.120;13.136;2022-09-06T09:01:51;99632.19;;;28.15;45.56
54329;BME280;40710;51.120;13.136;2022-09-06T09:04:21;99634.53;;;28.33;45.08
54329;BME280;40710;51.120;13.136;2022-09-06T09:06:52;99620.53;;;28.66;44.09
54329;BME280;40710;51.120;13.136;2022-09-06T09:09:18;99613.16;;;29.03;43.59
54329;BME280;40710;51.120;13.136;2022-09-06T09:11:46;99613.44;;;29.36;44.01
54329;BME280;40710;51.120;13.136;2022-09-06T09:14:17;99603.78;;;29.90;41.68
54329;BME280;40710;51.120;13.136;2022-09-06T09:16:43;99608.22;;;29.70;41.23
54329;BME280;40710;51.120;13.136;2022-09-06T09:19:07;99598.38;;;29.90;41.52
54329;BME280;40710;51.120;13.136;2022-09-06T09:21:35;99599.09;;;30.12;41.61
54329;BME280;40710;51.120;13.136;2022-09-06T09:24:08;99603.75;;;29.77;41.88
54329;BME280;40710;51.120;13.136;2022-09-06T09:26:41;99605.69;;;29.62;42.18
54329;BME280;40710;51.120;13.136;2022-09-06T09:29:09;99613.41;;;29.30;42.45
54329;BME280;40710;51.120;13.136;2022-09-06T09:31:40;99612.91;;;29.19;42.61
54329;BME280;40710;51.120;13.136;2022-09-06T09:34:09;99609.19;;;28.99;43.27
54329;BME280;40710;51.120;13.136;2022-09-06T09:36:34;99601.72;;;29.29;42.77
54329;BME280;40710;51.120;13.136;2022-09-06T09:38:59;99591.44;;;29.46;42.43
54329;BME280;40710;51.120;13.136;2022-09-06T09:41:33;99586.38;;;29.36;42.19
54329;BME280;40710;51.120;13.136;2022-09-06T09:44:02;99589.06;;;29.30;42.27
54329;BME280;40710;51.120;13.136;2022-09-06T09:46:32;99582.88;;;29.14;42.76
54329;BME280;40710;51.120;13.136;2022-09-06T09:49:10;99570.88;;;29.23;42.77
54329;BME280;40710;51.120;13.136;2022-09-06T09:51:43;99566.53;;;29.29;42.12
54329;BME280;40710;51.120;13.136;2022-09-06T09:54:13;99559.47;;;29.63;42.78
54329;BME280;40710;51.120;13.136;2022-09-06T09:56:47;99556.75;;;29.70;41.44
54329;BME280;40710;51.120;13.136;2022-09-06T09:59:24;99546.69;;;29.92;40.71
54329;BME280;40710;51.120;13.136;2022-09-06T10:01:54;99539.25;;;30.27;40.61
54329;BME280;40710;51.120;13.136;2022-09-06T10:04:28;99544.13;;;30.52;40.46
54329;BME280;40710;51.120;13.136;2022-09-06T10:09:41;99537.47;;;30.81;39.84
54329;BME280;40710;51.120;13.136;2022-09-06T10:12:06;99533.91;;;30.67;39.50
54329;BME280;40710;51.120;13.136;2022-09-06T10:14:39;99528.22;;;31.29;38.75
54329;BME280;40710;51.120;13.136;2022-09-06T10:17:04;99528.44;;;31.34;38.77
54329;BME280;40710;51.120;13.136;2022-09-06T10:19:41;99524.66;;;31.42;38.07
54329;BME280;40710;51.120;13.136;2022-09-06T10:22:22;99527.16;;;31.50;38.08
54329;BME280;40710;51.120;13.136;2022-09-06T10:27:29;99517.72;;;32.11;37.31
54329;BME280;40710;51.120;13.136;2022-09-06T10:30:02;99511.53;;;32.61;35.93
54329;BME280;40710;51.120;13.136;2022-09-06T10:35:42;99515.31;;;32.53;36.24
54329;BME280;40710;51.120;13.136;2022-09-06T10:38:50;99515.31;;;33.04;35.29
54329;BME280;40710;51.120;13.136;2022-09-06T10:41:29;99509.75;;;33.17;34.50
54329;BME280;40710;51.120;13.136;2022-09-06T10:43:59;99511.91;;;33.70;34.26
54329;BME280;40710;51.120;13.136;2022-09-06T10:46:30;99509.16;;;33.52;34.04
54329;BME280;40710;51.120;13.136;2022-09-06T10:48:56;99512.25;;;33.56;34.30
54329;BME280;40710;51.120;13.136;2022-09-06T10:54:08;99509.34;;;33.39;35.09
54329;BME280;40710;51.120;13.136;2022-09-06T10:56:44;99502.72;;;33.65;33.89
54329;BME280;40710;51.120;13.136;2022-09-06T10:59:25;99504.47;;;33.59;33.97
54329;BME280;40710;51.120;13.136;2022-09-06T11:04:34;99511.59;;;33.42;35.20
54329;BME280;40710;51.120;13.136;2022-09-06T11:07:02;99521.53;;;32.67;35.43
54329;BME280;40710;51.120;13.136;2022-09-06T11:09:32;99521.56;;;32.60;35.46
54329;BME280;40710;51.120;13.136;2022-09-06T11:12:18;99508.28;;;32.71;34.70
54329;BME280;40710;51.120;13.136;2022-09-06T11:14:46;99509.94;;;32.97;34.19
54329;BME280;40710;51.120;13.136;2022-09-06T11:17:16;99508.22;;;33.03;34.40
54329;BME280;40710;51.120;13.136;2022-09-06T11:20:13;99506.06;;;33.30;33.89
54329;BME280;40710;51.120;13.136;2022-09-06T11:22:57;99512.13;;;33.50;33.82
54329;BME280;40710;51.120;13.136;2022-09-06T11:26:04;99508.72;;;33.37;34.04
54329;BME280;40710;51.120;13.136;2022-09-06T11:28:43;99515.44;;;32.90;35.34
54329;BME280;40710;51.120;13.136;2022-09-06T11:31:13;99517.13;;;32.91;34.70
54329;BME280;40710;51.120;13.136;2022-09-06T11:33:41;99519.06;;;32.84;34.82
54329;BME280;40710;51.120;13.136;2022-09-06T11:38:41;99505.56;;;32.71;35.14
54329;BME280;40710;51.120;13.136;2022-09-06T11:41:13;99514.69;;;32.26;36.05
54329;BME280;40710;51.120;13.136;2022-09-06T11:43:52;99512.69;;;32.08;36.68
54329;BME280;40710;51.120;13.136;2022-09-06T11:51:35;99505.44;;;31.95;36.57
54329;BME280;40710;51.120;13.136;2022-09-06T11:54:04;99501.84;;;32.01;36.00
54329;BME280;40710;51.120;13.136;2022-09-06T11:56:52;99488.38;;;32.20;35.26
54329;BME280;40710;51.120;13.136;2022-09-06T11:59:22;99486.22;;;32.29;35.55
54329;BME280;40710;51.120;13.136;2022-09-06T12:07:25;99487.31;;;31.82;36.99
54329;BME280;40710;51.120;13.136;2022-09-06T12:09:50;99489.91;;;31.64;37.13
54329;BME280;40710;51.120;13.136;2022-09-06T12:12:41;99494.34;;;31.52;36.77
54329;BME280;40710;51.120;13.136;2022-09-06T12:15:26;99494.16;;;31.53;36.70
54329;BME280;40710;51.120;13.136;2022-09-06T12:17:52;99500.31;;;31.08;37.39
54329;BME280;40710;51.120;13.136;2022-09-06T12:25:58;99503.47;;;30.45;38.23
54329;BME280;40710;51.120;13.136;2022-09-06T12:28:34;99511.47;;;29.98;39.64
54329;BME280;40710;51.120;13.136;2022-09-06T12:31:21;99501.88;;;29.96;39.10
54329;BME280;40710;51.120;13.136;2022-09-06T12:33:46;99500.47;;;30.07;38.86
54329;BME280;40710;51.120;13.136;2022-09-06T12:36:16;99498.78;;;30.06;38.72
54329;BME280;40710;51.120;13.136;2022-09-06T12:39:00;99499.19;;;30.03;39.17
54329;BME280;40710;51.120;13.136;2022-09-06T12:41:30;99499.59;;;29.93;39.03
54329;BME280;40710;51.120;13.136;2022-09-06T12:43:58;99499.81;;;29.98;39.03
54329;BME280;40710;51.120;13.136;2022-09-06T12:46:24;99493.75;;;29.96;39.08
54329;BME280;40710;51.120;13.136;2022-09-06T12:49:00;99495.84;;;30.01;39.07
54329;BME280;40710;51.120;13.136;2022-09-06T12:51:24;99492.13;;;30.02;38.65
54329;BME280;40710;51.120;13.136;2022-09-06T12:53:54;99493.53;;;29.97;39.27
54329;BME280;40710;51.120;13.136;2022-09-06T12:56:21;99493.03;;;30.35;38.51
54329;BME280;40710;51.120;13.136;2022-09-06T12:58:46;99488.34;;;30.03;38.90
54329;BME280;40710;51.120;13.136;2022-09-06T13:03:57;99504.34;;;29.91;39.04
54329;BME280;40710;51.120;13.136;2022-09-06T13:06:26;99510.72;;;29.70;40.06
54329;BME280;40710;51.120;13.136;2022-09-06T13:08:52;99519.50;;;29.72;40.82
54329;BME280;40710;51.120;13.136;2022-09-06T13:11:25;99551.59;;;29.05;41.58
54329;BME280;40710;51.120;13.136;2022-09-06T13:13:52;99618.50;;;25.06;51.97
54329;BME280;40710;51.120;13.136;2022-09-06T13:16:26;99599.53;;;24.91;54.30
54329;BME280;40710;51.120;13.136;2022-09-06T13:18:51;99612.78;;;25.09;54.46
54329;BME280;40710;51.120;13.136;2022-09-06T13:21:30;99639.75;;;23.91;57.18
54329;BME280;40710;51.120;13.136;2022-09-06T13:23:56;99639.09;;;23.97;56.68
54329;BME280;40710;51.120;13.136;2022-09-06T13:26:36;99641.88;;;24.22;56.67
54329;BME280;40710;51.120;13.136;2022-09-06T13:31:44;99629.56;;;23.77;55.88
54329;BME280;40710;51.120;13.136;2022-09-06T13:34:09;99638.72;;;23.58;56.02
54329;BME280;40710;51.120;13.136;2022-09-06T13:36:34;99633.03;;;24.30;54.76
54329;BME280;40710;51.120;13.136;2022-09-06T13:38:59;99624.41;;;24.26;53.98
54329;BME280;40710;51.120;13.136;2022-09-06T13:44:15;99625.41;;;24.09;54.40
54329;BME280;40710;51.120;13.136;2022-09-06T13:46:40;99623.66;;;23.65;54.88
54329;BME280;40710;51.120;13.136;2022-09-06T13:49:05;99622.38;;;23.77;55.04
54329;BME280;40710;51.120;13.136;2022-09-06T13:51:29;99619.47;;;24.05;54.66
54329;BME280;40710;51.120;13.136;2022-09-06T13:54:11;99614.22;;;24.38;53.86
54329;BME280;40710;51.120;13.136;2022-09-06T13:56:36;99617.91;;;24.29;54.03
54329;BME280;40710;51.120;13.136;2022-09-06T13:59:02;99616.16;;;24.11;54.51
54329;BME280;40710;51.120;13.136;2022-09-06T14:01:27;99612.84;;;24.18;54.52
54329;BME280;40710;51.120;13.136;2022-09-06T14:03:52;99615.84;;;24.14;54.52
54329;BME280;40710;51.120;13.136;2022-09-06T14:06:17;99621.28;;;23.96;56.10